Time;durP1;ratioP1;P1;durP2;ratioP2;P2;SDS_P1;SDS_P2;PMS_P1;PMS_P2;Temp;Humidity;BMP_temperature;BMP_pressure;BME280_temperature;BME280_humidity;BME280_pressure;Samples;Min_cycle;Max_cycle;Signal;HPM_P1;HPM_P2
2023/10/31 00:03:47;;;;;;;;;;;;;;;16.35;69.09;99526.16;5370513;32;34471;-73
2023/10/31 00:07:03;;;;;;;;;;;;;;;16.49;68.85;99515.34;5368331;32;32670;-73
2023/10/31 00:10:09;;;;;;;;;;;;;;;16.39;70.05;99503.75;5376510;32;35257;-73
2023/10/31 00:13:13;;;;;;;;;;;;;;;16.64;68.47;99505.34;5377859;32;33971;-72
2023/10/31 00:16:25;;;;;;;;;;;;;;;16.33;70.28;99512.16;5375894;32;35471;-72
2023/10/31 00:19:44;;;;;;;;;;;;;;;15.89;70.99;99505.78;5378336;32;35408;-74
2023/10/31 00:23:03;;;;;;;;;;;;;;;16.12;70.66;99512.84;5380284;32;32747;-72
2023/10/31 00:26:29;;;;;;;;;;;;;;;16.19;69.93;99508.78;5375150;32;32784;-73
2023/10/31 00:29:45;;;;;;;;;;;;;;;16.42;68.03;99503.50;5375419;32;33956;-74
2023/10/31 00:33:04;;;;;;;;;;;;;;;15.96;69.62;99499.06;5375113;32;34127;-73
2023/10/31 00:36:31;;;;;;;;;;;;;;;15.65;72.22;99484.63;5370749;32;35464;-73
2023/10/31 00:40:03;;;;;;;;;;;;;;;16.11;70.62;99479.34;5372321;32;33529;-73
2023/10/31 00:43:45;;;;;;;;;;;;;;;15.95;70.76;99469.06;5375033;32;34369;-74
2023/10/31 00:47:25;;;;;;;;;;;;;;;16.24;69.90;99476.59;5376771;32;34043;-74
2023/10/31 00:50:39;;;;;;;;;;;;;;;15.25;75.02;99471.62;5368809;32;34380;-72
2023/10/31 00:53:54;;;;;;;;;;;;;;;15.74;73.39;99475.16;5419496;32;35566;-73
2023/10/31 00:57:08;;;;;;;;;;;;;;;15.12;74.62;99462.88;5435992;32;34203;-73
2023/10/31 01:00:16;;;;;;;;;;;;;;;16.14;71.20;99451.75;5441638;32;35229;-73
2023/10/31 01:03:21;;;;;;;;;;;;;;;15.74;70.68;99444.19;5443633;32;35146;-73
2023/10/31 01:06:33;;;;;;;;;;;;;;;15.73;71.29;99445.16;5431231;32;34306;-73
2023/10/31 01:09:52;;;;;;;;;;;;;;;15.33;73.90;99434.84;5407583;32;34081;-73
2023/10/31 01:12:58;;;;;;;;;;;;;;;16.23;68.69;99430.69;5401471;32;33287;-73
2023/10/31 01:16:03;;;;;;;;;;;;;;;15.42;71.41;99428.03;5406670;32;33446;-73
2023/10/31 01:19:24;;;;;;;;;;;;;;;15.69;70.72;99431.28;5429507;32;34424;-73
2023/10/31 01:23:09;;;;;;;;;;;;;;;15.55;71.23;99427.97;5450323;32;33909;-72
2023/10/31 01:26:25;;;;;;;;;;;;;;;15.00;74.31;99416.97;5422679;32;34422;-72
2023/10/31 01:29:56;;;;;;;;;;;;;;;15.21;73.89;99408.44;5399362;32;34698;-73
2023/10/31 01:33:12;;;;;;;;;;;;;;;15.67;72.09;99409.38;5425431;32;35109;-73
2023/10/31 01:36:35;;;;;;;;;;;;;;;16.12;69.28;99406.81;5413827;32;34133;-74
2023/10/31 01:40:14;;;;;;;;;;;;;;;15.99;69.85;99403.44;5374561;32;34555;-74
2023/10/31 01:43:43;;;;;;;;;;;;;;;15.72;70.54;99387.84;5378071;32;33320;-73
2023/10/31 01:47:00;;;;;;;;;;;;;;;15.92;70.13;99394.28;5375628;32;35270;-73
2023/10/31 01:50:22;;;;;;;;;;;;;;;15.66;71.04;99394.44;5384318;32;33903;-73
2023/10/31 01:54:08;;;;;;;;;;;;;;;15.13;73.89;99386.03;5370166;32;33095;-73
2023/10/31 01:57:40;;;;;;;;;;;;;;;15.89;71.02;99373.28;5369871;32;34351;-73
2023/10/31 02:00:49;;;;;;;;;;;;;;;15.79;71.01;99373.16;5372232;32;34195;-73
2023/10/31 02:03:58;;;;;;;;;;;;;;;15.41;72.29;99378.69;5372304;32;35552;-73
2023/10/31 02:07:08;;;;;;;;;;;;;;;15.48;72.11;99379.91;5386073;32;34006;-72
2023/10/31 02:10:19;;;;;;;;;;;;;;;15.87;71.37;99377.88;5390370;32;35548;-73
2023/10/31 02:13:42;;;;;;;;;;;;;;;15.91;70.26;99377.53;5372877;32;34319;-73
2023/10/31 02:17:05;;;;;;;;;;;;;;;15.50;71.54;99369.19;5368770;32;34726;-72
2023/10/31 02:20:23;;;;;;;;;;;;;;;15.74;71.14;99358.59;5376216;32;34785;-73
2023/10/31 02:23:33;;;;;;;;;;;;;;;16.73;66.37;99346.28;5378490;32;33941;-73
2023/10/31 02:26:41;;;;;;;;;;;;;;;16.30;67.88;99345.37;5386144;32;34563;-74
2023/10/31 02:29:54;;;;;;;;;;;;;;;15.51;72.48;99350.53;5397831;32;33114;-73
2023/10/31 02:33:07;;;;;;;;;;;;;;;15.39;72.95;99343.50;5392432;32;34418;-72
2023/10/31 02:36:09;;;;;;;;;;;;;;;15.44;72.65;99352.81;5377491;32;33994;-72
2023/10/31 02:39:11;;;;;;;;;;;;;;;15.85;69.77;99363.91;5394031;32;34080;-73
2023/10/31 02:42:14;;;;;;;;;;;;;;;15.80;69.65;99358.13;5391890;32;34275;-74
2023/10/31 02:45:16;;;;;;;;;;;;;;;15.22;72.87;99357.19;5393272;32;33995;-74
2023/10/31 02:48:18;;;;;;;;;;;;;;;15.48;72.60;99348.13;5396252;32;35346;-74
2023/10/31 02:51:20;;;;;;;;;;;;;;;15.59;72.54;99339.38;5391207;32;35273;-74
2023/10/31 02:54:25;;;;;;;;;;;;;;;15.80;71.63;99339.56;5401832;32;35216;-73
2023/10/31 02:57:53;;;;;;;;;;;;;;;16.32;68.01;99343.44;5472823;32;35197;-72
2023/10/31 03:01:06;;;;;;;;;;;;;;;15.28;72.95;99325.81;5485567;32;34343;-72
2023/10/31 03:04:11;;;;;;;;;;;;;;;16.42;68.39;99339.94;5483783;32;35675;-72
2023/10/31 03:07:31;;;;;;;;;;;;;;;16.79;65.87;99344.94;5466136;32;34049;-73
2023/10/31 03:10:40;;;;;;;;;;;;;;;15.13;72.01;99348.13;5473424;32;35210;-73
2023/10/31 03:13:43;;;;;;;;;;;;;;;15.50;71.60;99348.00;5486209;32;34103;-73
2023/10/31 03:16:45;;;;;;;;;;;;;;;15.50;72.13;99351.50;5487412;32;34227;-73
2023/10/31 03:19:48;;;;;;;;;;;;;;;16.22;68.59;99348.59;5480079;32;34220;-73
2023/10/31 03:22:50;;;;;;;;;;;;;;;15.91;70.26;99356.31;5483286;32;34177;-74
2023/10/31 03:25:52;;;;;;;;;;;;;;;15.93;70.27;99356.19;5486208;32;35162;-72
2023/10/31 03:28:57;;;;;;;;;;;;;;;15.55;72.39;99344.06;5483181;32;34178;-73
2023/10/31 03:32:02;;;;;;;;;;;;;;;15.39;73.64;99340.88;5484383;32;34072;-73
2023/10/31 03:35:04;;;;;;;;;;;;;;;15.89;72.13;99352.94;5483579;32;34135;-73
2023/10/31 03:38:06;;;;;;;;;;;;;;;16.32;70.45;99356.69;5481719;32;34078;-73
2023/10/31 03:41:09;;;;;;;;;;;;;;;16.15;69.58;99371.25;5483791;32;34113;-73
2023/10/31 03:44:23;;;;;;;;;;;;;;;16.02;71.12;99387.28;5483285;32;35271;-73
2023/10/31 03:47:45;;;;;;;;;;;;;;;16.55;68.65;99379.59;5479766;32;35908;-74
2023/10/31 03:51:04;;;;;;;;;;;;;;;16.27;71.28;99388.88;5463819;32;34122;-74
2023/10/31 03:54:15;;;;;;;;;;;;;;;16.32;69.77;99402.62;5477630;32;32743;-74
2023/10/31 03:57:51;;;;;;;;;;;;;;;16.01;71.96;99401.50;5453904;32;35727;-74
2023/10/31 04:00:53;;;;;;;;;;;;;;;15.48;75.55;99382.56;5444718;32;33685;-74
2023/10/31 04:03:55;;;;;;;;;;;;;;;16.12;73.76;99368.87;5456719;32;34249;-74
2023/10/31 04:06:57;;;;;;;;;;;;;;;15.55;74.80;99389.06;5456107;32;34198;-74
2023/10/31 04:09:59;;;;;;;;;;;;;;;16.14;72.68;99388.97;5445822;32;35683;-73
2023/10/31 04:13:05;;;;;;;;;;;;;;;16.28;70.02;99379.94;5444302;32;32777;-75
2023/10/31 04:16:08;;;;;;;;;;;;;;;15.58;72.74;99367.66;5448712;32;34526;-73
2023/10/31 04:19:10;;;;;;;;;;;;;;;16.37;68.93;99359.84;5452285;32;34207;-73
2023/10/31 04:22:12;;;;;;;;;;;;;;;16.19;69.66;99349.72;5447723;32;34128;-73
2023/10/31 04:25:15;;;;;;;;;;;;;;;16.22;69.46;99354.75;5456821;32;35344;-74
2023/10/31 04:28:17;;;;;;;;;;;;;;;16.81;64.88;99339.50;5453891;32;35045;-73
2023/10/31 04:31:19;;;;;;;;;;;;;;;17.21;64.01;99351.22;5444433;32;34305;-75
2023/10/31 04:34:39;;;;;;;;;;;;;;;15.69;71.23;99340.38;5452650;32;35313;-75
2023/10/31 04:37:41;;;;;;;;;;;;;;;15.68;71.77;99334.25;5457779;32;35304;-73
2023/10/31 04:40:45;;;;;;;;;;;;;;;15.88;72.34;99313.31;5462383;32;34442;-73
2023/10/31 04:43:47;;;;;;;;;;;;;;;16.30;71.29;99322.34;5445487;32;35573;-73
2023/10/31 04:46:49;;;;;;;;;;;;;;;16.21;70.07;99328.38;5457619;32;35285;-73
2023/10/31 04:49:52;;;;;;;;;;;;;;;15.57;75.24;99326.25;5459219;32;33867;-72
2023/10/31 04:52:54;;;;;;;;;;;;;;;16.37;70.00;99296.19;5454851;32;34404;-73
2023/10/31 04:55:56;;;;;;;;;;;;;;;16.11;72.76;99304.41;5485905;32;33906;-73
2023/10/31 04:58:58;;;;;;;;;;;;;;;16.03;72.37;99304.16;5485098;32;34190;-73
2023/10/31 05:02:01;;;;;;;;;;;;;;;16.06;71.68;99301.28;5486974;32;35222;-74
2023/10/31 05:05:03;;;;;;;;;;;;;;;16.16;71.01;99291.63;5486711;32;35494;-72
2023/10/31 05:08:05;;;;;;;;;;;;;;;16.28;68.25;99288.97;5478509;32;34194;-73
2023/10/31 05:11:08;;;;;;;;;;;;;;;15.59;72.01;99289.06;5485802;32;34206;-74
2023/10/31 05:14:10;;;;;;;;;;;;;;;15.40;74.98;99281.69;5482872;32;34183;-73
2023/10/31 05:17:12;;;;;;;;;;;;;;;15.51;75.63;99276.37;5489747;32;34587;-73
2023/10/31 05:20:15;;;;;;;;;;;;;;;15.47;75.12;99271.47;5475855;32;33927;-73
2023/10/31 05:23:17;;;;;;;;;;;;;;;16.00;73.68;99267.31;5489623;32;34160;-73
2023/10/31 05:26:19;;;;;;;;;;;;;;;16.05;72.31;99253.69;5483150;32;34113;-73
2023/10/31 05:29:22;;;;;;;;;;;;;;;16.56;70.28;99261.06;5479281;32;34334;-73
2023/10/31 05:32:24;;;;;;;;;;;;;;;16.57;70.22;99282.16;5485207;32;33966;-73
2023/10/31 05:35:26;;;;;;;;;;;;;;;16.50;69.09;99292.44;5480509;32;35645;-73
2023/10/31 05:38:29;;;;;;;;;;;;;;;16.86;67.10;99310.78;5485076;32;33189;-73
2023/10/31 05:41:33;;;;;;;;;;;;;;;16.36;68.32;99336.91;5483996;32;33994;-73
2023/10/31 05:44:35;;;;;;;;;;;;;;;15.65;73.05;99337.13;5488561;32;33941;-74
2023/10/31 05:47:38;;;;;;;;;;;;;;;15.83;73.88;99329.56;5484699;32;32858;-74
2023/10/31 05:51:03;;;;;;;;;;;;;;;16.61;69.66;99315.41;5485200;32;34140;-73
2023/10/31 05:54:16;;;;;;;;;;;;;;;16.04;71.87;99305.03;5486238;32;34848;-73
2023/10/31 05:57:18;;;;;;;;;;;;;;;16.00;68.25;99295.62;5483781;32;35341;-74
2023/10/31 06:00:20;;;;;;;;;;;;;;;16.11;68.86;99283.22;5486525;32;35374;-73
2023/10/31 06:03:23;;;;;;;;;;;;;;;16.85;61.44;99283.41;5482896;32;34846;-74
2023/10/31 06:06:25;;;;;;;;;;;;;;;17.40;58.79;99278.81;5486982;32;34257;-73
2023/10/31 06:09:26;;;;;;;;;;;;;;;17.15;58.92;99289.81;5485878;32;34153;-73
2023/10/31 06:12:28;;;;;;;;;;;;;;;17.53;57.27;99275.97;5484806;32;34130;-74
2023/10/31 06:15:31;;;;;;;;;;;;;;;17.22;58.69;99259.97;5487863;32;35457;-73
2023/10/31 06:18:33;;;;;;;;;;;;;;;17.37;58.30;99259.63;5485755;32;34311;-73
2023/10/31 06:21:35;;;;;;;;;;;;;;;17.04;59.66;99266.81;5486045;32;35148;-73
2023/10/31 06:24:37;;;;;;;;;;;;;;;17.45;61.41;99307.63;5486058;32;34205;-73
2023/10/31 06:27:39;;;;;;;;;;;;;;;16.64;64.36;99296.59;5486365;32;34044;-74
2023/10/31 06:30:41;;;;;;;;;;;;;;;16.15;69.59;99294.41;5485090;32;33939;-74
2023/10/31 06:33:43;;;;;;;;;;;;;;;16.74;67.15;99286.97;5480289;32;34133;-73
2023/10/31 06:36:45;;;;;;;;;;;;;;;16.70;62.72;99296.12;5483465;32;34086;-74
2023/10/31 06:39:47;;;;;;;;;;;;;;;16.71;62.41;99295.16;5484800;32;35698;-73
2023/10/31 06:42:49;;;;;;;;;;;;;;;16.91;61.25;99282.06;5484939;32;35000;-73
2023/10/31 06:45:51;;;;;;;;;;;;;;;16.78;59.57;99285.72;5483077;32;34107;-73
2023/10/31 06:48:53;;;;;;;;;;;;;;;16.91;62.32;99268.81;5484521;32;34088;-74
2023/10/31 06:51:55;;;;;;;;;;;;;;;17.30;62.61;99283.22;5478005;32;35812;-74
2023/10/31 06:54:59;;;;;;;;;;;;;;;17.96;59.07;99293.53;5482404;32;34952;-73
2023/10/31 06:58:02;;;;;;;;;;;;;;;17.40;60.45;99293.91;5483242;32;34219;-74
2023/10/31 07:01:05;;;;;;;;;;;;;;;17.18;62.85;99295.69;5482040;32;34121;-74
2023/10/31 07:04:07;;;;;;;;;;;;;;;17.27;61.46;99288.78;5480819;32;34041;-75
2023/10/31 07:07:09;;;;;;;;;;;;;;;17.43;61.85;99307.75;5479663;32;34608;-73
2023/10/31 07:10:11;;;;;;;;;;;;;;;16.50;66.45;99299.53;5480023;32;35371;-74
2023/10/31 07:13:13;;;;;;;;;;;;;;;16.97;64.49;99298.34;5487967;32;35412;-74
2023/10/31 07:16:15;;;;;;;;;;;;;;;17.13;63.78;99278.47;5472888;32;34422;-74
2023/10/31 07:19:18;;;;;;;;;;;;;;;17.09;65.21;99279.72;5481706;32;34602;-74
2023/10/31 07:22:20;;;;;;;;;;;;;;;17.73;63.86;99279.59;5477981;32;34130;-73
2023/10/31 07:25:22;;;;;;;;;;;;;;;18.38;54.36;99271.16;5479364;32;34182;-73
2023/10/31 07:28:24;;;;;;;;;;;;;;;17.40;59.18;99276.16;5480922;32;35177;-74
2023/10/31 07:31:26;;;;;;;;;;;;;;;18.10;57.81;99275.41;5482117;32;34107;-73
2023/10/31 07:34:29;;;;;;;;;;;;;;;18.66;53.96;99274.00;5481953;32;35469;-73
2023/10/31 07:37:33;;;;;;;;;;;;;;;18.39;54.25;99280.81;5468518;32;35388;-75
2023/10/31 07:40:38;;;;;;;;;;;;;;;17.97;54.79;99279.25;5479823;32;34488;-74
2023/10/31 07:43:40;;;;;;;;;;;;;;;17.87;55.47;99265.94;5481828;32;35846;-75
2023/10/31 07:46:42;;;;;;;;;;;;;;;17.65;53.69;99261.63;5485533;32;34176;-73
2023/10/31 07:49:44;;;;;;;;;;;;;;;17.80;54.66;99268.28;5482719;32;34286;-74
2023/10/31 07:52:47;;;;;;;;;;;;;;;18.33;53.44;99276.03;5484303;32;34704;-73
2023/10/31 07:55:49;;;;;;;;;;;;;;;18.32;53.76;99260.22;5484994;32;34107;-72
2023/10/31 07:58:51;;;;;;;;;;;;;;;18.54;53.43;99259.13;5479732;32;34236;-73
2023/10/31 08:01:53;;;;;;;;;;;;;;;18.02;54.47;99264.59;5486116;32;34086;-74
2023/10/31 08:04:56;;;;;;;;;;;;;;;17.80;54.87;99248.84;5482132;32;34046;-73
2023/10/31 08:07:58;;;;;;;;;;;;;;;18.26;53.72;99248.31;5484011;32;34079;-73
2023/10/31 08:11:03;;;;;;;;;;;;;;;18.74;51.54;99244.91;5479476;32;34258;-73
2023/10/31 08:14:05;;;;;;;;;;;;;;;18.04;52.92;99249.38;5482027;32;32566;-73
2023/10/31 08:17:09;;;;;;;;;;;;;;;19.26;50.46;99258.75;5485247;32;34288;-75
2023/10/31 08:20:11;;;;;;;;;;;;;;;18.35;52.57;99258.16;5477179;32;32722;-74
2023/10/31 08:23:13;;;;;;;;;;;;;;;19.37;49.38;99260.41;5484844;32;33089;-74
2023/10/31 08:26:16;;;;;;;;;;;;;;;18.62;51.55;99256.66;5479273;32;35342;-74
2023/10/31 08:29:18;;;;;;;;;;;;;;;19.50;47.65;99255.59;5485138;32;34163;-74
2023/10/31 08:32:22;;;;;;;;;;;;;;;18.87;49.89;99253.47;5481442;32;34736;-73
2023/10/31 08:35:24;;;;;;;;;;;;;;;19.28;49.00;99259.44;5481943;32;35839;-75
2023/10/31 08:38:29;;;;;;;;;;;;;;;18.75;50.32;99262.56;5480807;32;35447;-73
2023/10/31 08:41:33;;;;;;;;;;;;;;;19.78;47.40;99242.38;5474538;32;35567;-75
2023/10/31 08:44:37;;;;;;;;;;;;;;;19.05;49.59;99245.59;5481458;32;34171;-74
2023/10/31 08:47:39;;;;;;;;;;;;;;;19.30;48.51;99235.31;5481717;32;35679;-74
2023/10/31 08:50:41;;;;;;;;;;;;;;;19.39;49.29;99218.50;5480337;32;32761;-74
2023/10/31 08:53:43;;;;;;;;;;;;;;;19.41;48.70;99217.34;5482243;32;36164;-74
2023/10/31 08:56:47;;;;;;;;;;;;;;;20.14;46.64;99216.66;5477680;32;32908;-73
2023/10/31 08:59:49;;;;;;;;;;;;;;;19.83;47.03;99227.59;5483795;32;34106;-73
2023/10/31 09:02:51;;;;;;;;;;;;;;;19.67;47.32;99222.91;5481246;32;34198;-73
2023/10/31 09:05:53;;;;;;;;;;;;;;;19.80;46.76;99214.59;5485969;32;34158;-74
2023/10/31 09:08:55;;;;;;;;;;;;;;;19.63;46.94;99210.00;5481467;32;34285;-76
2023/10/31 09:11:57;;;;;;;;;;;;;;;19.71;46.57;99215.47;5481590;32;35317;-72
2023/10/31 09:15:00;;;;;;;;;;;;;;;19.67;45.99;99209.59;5482636;32;34686;-74
2023/10/31 09:18:02;;;;;;;;;;;;;;;19.80;46.45;99206.59;5479429;32;34067;-74
2023/10/31 09:21:04;;;;;;;;;;;;;;;20.31;45.03;99201.69;5482589;32;35134;-73
2023/10/31 09:24:07;;;;;;;;;;;;;;;20.16;45.20;99193.34;5484054;32;34078;-73
2023/10/31 09:27:10;;;;;;;;;;;;;;;19.90;45.68;99182.53;5485700;32;34198;-75
2023/10/31 09:30:12;;;;;;;;;;;;;;;19.90;45.75;99187.84;5484585;32;34077;-74
2023/10/31 09:33:17;;;;;;;;;;;;;;;20.11;45.14;99176.97;5483964;32;34249;-75
2023/10/31 09:36:19;;;;;;;;;;;;;;;19.92;45.74;99165.41;5485003;32;33296;-73
2023/10/31 09:39:22;;;;;;;;;;;;;;;20.37;44.49;99151.22;5476389;32;34194;-74
2023/10/31 09:42:25;;;;;;;;;;;;;;;19.87;44.80;99151.69;5479849;32;35315;-76
2023/10/31 09:45:27;;;;;;;;;;;;;;;19.92;45.29;99153.91;5476188;32;35914;-76
2023/10/31 09:48:29;;;;;;;;;;;;;;;19.91;45.14;99165.56;5464390;32;35781;-73
2023/10/31 09:51:34;;;;;;;;;;;;;;;19.95;45.27;99166.94;5481600;32;33715;-75
2023/10/31 09:54:36;;;;;;;;;;;;;;;20.24;44.96;99158.75;5483243;32;34778;-74
2023/10/31 09:57:38;;;;;;;;;;;;;;;20.60;43.59;99153.44;5482647;32;33265;-73
2023/10/31 10:00:40;;;;;;;;;;;;;;;20.69;43.15;99142.69;5477545;32;34046;-73
2023/10/31 10:03:43;;;;;;;;;;;;;;;20.47;43.07;99145.81;5480593;32;33756;-74
2023/10/31 10:07:04;;;;;;;;;;;;;;;20.51;43.71;99131.19;5482497;32;34553;-74
2023/10/31 10:10:12;;;;;;;;;;;;;;;20.45;43.20;99110.44;5477341;32;34318;-73
2023/10/31 10:13:16;;;;;;;;;;;;;;;20.12;43.60;99099.44;5479795;32;34721;-74
2023/10/31 10:16:30;;;;;;;;;;;;;;;20.46;42.91;99094.28;5483419;32;35371;-73
2023/10/31 10:19:32;;;;;;;;;;;;;;;20.51;42.98;99083.16;5484081;32;34365;-73
2023/10/31 10:22:42;;;;;;;;;;;;;;;20.54;42.46;99065.00;5482638;32;34015;-72
2023/10/31 10:25:44;;;;;;;;;;;;;;;20.64;41.97;99077.41;5477382;32;34142;-73
2023/10/31 10:28:47;;;;;;;;;;;;;;;20.47;42.45;99065.75;5480970;32;33242;-72
2023/10/31 10:31:54;;;;;;;;;;;;;;;20.71;42.64;99062.44;5480254;32;35258;-74
2023/10/31 10:34:57;;;;;;;;;;;;;;;20.75;42.35;99043.28;5480618;32;33608;-73
2023/10/31 10:38:00;;;;;;;;;;;;;;;20.99;41.62;99023.88;5481263;32;34511;-74
2023/10/31 10:41:03;;;;;;;;;;;;;;;21.57;40.06;99017.78;5482431;32;35267;-72
2023/10/31 10:44:07;;;;;;;;;;;;;;;21.78;39.19;99017.34;5480235;32;34614;-74
2023/10/31 10:47:12;;;;;;;;;;;;;;;21.32;39.38;99014.22;5479265;32;34165;-72
2023/10/31 10:50:15;;;;;;;;;;;;;;;20.94;41.02;99015.53;5463560;32;36614;-73
2023/10/31 10:53:28;;;;;;;;;;;;;;;21.62;39.53;99010.09;5484198;32;34297;-71
2023/10/31 10:56:34;;;;;;;;;;;;;;;21.72;39.55;99017.16;5482274;32;34267;-72
2023/10/31 10:59:43;;;;;;;;;;;;;;;21.15;40.64;99000.91;5481057;32;35748;-73
2023/10/31 11:02:46;;;;;;;;;;;;;;;22.07;37.96;98991.94;5479245;32;35318;-73
2023/10/31 11:05:57;;;;;;;;;;;;;;;22.56;37.45;98966.00;5482665;32;35390;-73
2023/10/31 11:08:59;;;;;;;;;;;;;;;22.83;37.36;98970.09;5480341;32;34297;-73
2023/10/31 11:12:02;;;;;;;;;;;;;;;23.18;35.05;98949.22;5474111;32;34140;-73
2023/10/31 11:15:04;;;;;;;;;;;;;;;22.95;35.93;98943.81;5474075;32;35219;-74
2023/10/31 11:18:06;;;;;;;;;;;;;;;22.90;36.09;98928.25;5482021;32;35662;-73
2023/10/31 11:21:08;;;;;;;;;;;;;;;22.72;36.04;98924.94;5482351;32;34137;-71
2023/10/31 11:24:10;;;;;;;;;;;;;;;22.68;36.36;98937.84;5478473;32;34101;-72
2023/10/31 11:27:13;;;;;;;;;;;;;;;22.64;36.58;98923.12;5477657;32;35131;-72
2023/10/31 11:30:28;;;;;;;;;;;;;;;22.23;38.30;98921.56;5472828;32;35155;-73
2023/10/31 11:33:30;;;;;;;;;;;;;;;22.57;38.83;98930.19;5482499;32;35224;-73
2023/10/31 11:36:33;;;;;;;;;;;;;;;22.00;39.73;98932.09;5480478;32;35747;-73
2023/10/31 11:39:35;;;;;;;;;;;;;;;21.07;40.65;98937.62;5481549;32;34318;-73
2023/10/31 11:42:38;;;;;;;;;;;;;;;20.93;40.76;98925.72;5479092;32;34125;-73
2023/10/31 11:45:50;;;;;;;;;;;;;;;20.67;41.44;98895.56;5483063;32;34207;-72
2023/10/31 11:48:52;;;;;;;;;;;;;;;20.98;41.53;98861.12;5483792;32;34236;-73
2023/10/31 11:51:55;;;;;;;;;;;;;;;21.43;41.31;98882.09;5479391;32;34361;-74
2023/10/31 11:54:57;;;;;;;;;;;;;;;21.37;41.70;98888.94;5482104;32;34367;-73
2023/10/31 11:57:59;;;;;;;;;;;;;;;21.89;40.52;98887.78;5479965;32;34191;-74
2023/10/31 12:01:03;;;;;;;;;;;;;;;21.12;42.89;98886.34;5481343;32;35152;-72
2023/10/31 12:04:05;;;;;;;;;;;;;;;20.88;44.11;98885.31;5480165;32;35303;-73
2023/10/31 12:07:09;;;;;;;;;;;;;;;19.97;47.75;98866.31;5473885;32;34360;-73
2023/10/31 12:10:12;;;;;;;;;;;;;;;20.99;45.95;98887.66;5482277;32;35330;-73
2023/10/31 12:13:14;;;;;;;;;;;;;;;20.16;48.50;98867.94;5482473;32;34060;-73
2023/10/31 12:16:16;;;;;;;;;;;;;;;20.25;49.01;98849.13;5479161;32;32735;-72
2023/10/31 12:19:20;;;;;;;;;;;;;;;19.80;50.58;98837.88;5483311;32;35015;-73
2023/10/31 12:22:24;;;;;;;;;;;;;;;19.99;51.35;98841.16;5480776;32;32886;-72
2023/10/31 12:25:26;;;;;;;;;;;;;;;20.76;51.01;98867.91;5476348;32;33370;-73
2023/10/31 12:28:28;;;;;;;;;;;;;;;20.85;50.79;98914.16;5486740;32;34284;-77
2023/10/31 12:31:30;;;;;;;;;;;;;;;20.45;52.22;99047.25;5480867;32;34441;-77
2023/10/31 12:34:36;;;;;;;;;;;;;;;17.84;59.89;99174.03;5481129;32;35287;-75
2023/10/31 12:37:45;;;;;;;;;;;;;;;16.12;69.12;99160.31;5484553;32;33850;-74
2023/10/31 12:40:47;;;;;;;;;;;;;;;16.09;69.70;99184.41;5478669;32;34131;-74
2023/10/31 12:43:51;;;;;;;;;;;;;;;16.10;72.53;99175.50;5477716;32;33424;-75
2023/10/31 12:46:54;;;;;;;;;;;;;;;16.38;72.61;99160.81;5478307;32;34316;-74
2023/10/31 12:50:05;;;;;;;;;;;;;;;16.58;72.26;99151.22;5464567;32;35430;-76
2023/10/31 12:53:08;;;;;;;;;;;;;;;16.21;75.58;99145.47;5481621;32;34289;-74
2023/10/31 12:56:12;;;;;;;;;;;;;;;16.01;76.31;99140.94;5467042;32;33695;-74
2023/10/31 12:59:15;;;;;;;;;;;;;;;16.28;76.31;99120.12;5480354;32;34344;-74
2023/10/31 13:02:17;;;;;;;;;;;;;;;16.41;77.04;99094.25;5484713;32;35477;-74
2023/10/31 13:05:19;;;;;;;;;;;;;;;17.15;73.60;99103.97;5484507;32;34054;-73
2023/10/31 13:08:22;;;;;;;;;;;;;;;17.20;73.63;99093.81;5485405;32;34723;-78
2023/10/31 13:11:27;;;;;;;;;;;;;;;17.94;70.52;99125.37;5478925;32;35909;-74
2023/10/31 13:14:29;;;;;;;;;;;;;;;17.99;68.92;99165.69;5477757;32;36520;-72
2023/10/31 13:17:36;;;;;;;;;;;;;;;17.23;73.64;99181.16;5479641;32;35879;-74
2023/10/31 13:20:38;;;;;;;;;;;;;;;17.21;73.66;99159.22;5484608;32;33798;-75
2023/10/31 13:23:43;;;;;;;;;;;;;;;17.00;72.99;99128.22;5485079;32;34288;-73
2023/10/31 13:26:51;;;;;;;;;;;;;;;17.47;70.66;99109.13;5483985;32;34896;-73
2023/10/31 13:29:56;;;;;;;;;;;;;;;18.06;68.75;99124.28;5479234;32;33591;-71
2023/10/31 13:32:58;;;;;;;;;;;;;;;17.24;71.35;99150.97;5482428;32;33808;-73
2023/10/31 13:36:00;;;;;;;;;;;;;;;16.73;72.12;99157.91;5485699;32;35680;-73
2023/10/31 13:39:02;;;;;;;;;;;;;;;16.07;75.85;99204.06;5485442;32;34993;-73
2023/10/31 13:42:05;;;;;;;;;;;;;;;16.16;75.20;99235.09;5485292;32;34226;-73
2023/10/31 13:45:07;;;;;;;;;;;;;;;16.43;74.52;99263.88;5485227;32;34239;-72
2023/10/31 13:48:11;;;;;;;;;;;;;;;15.01;80.66;99264.38;5483092;32;34426;-75
2023/10/31 13:51:13;;;;;;;;;;;;;;;15.16;81.42;99306.41;5481292;32;33087;-79
2023/10/31 13:54:16;;;;;;;;;;;;;;;16.08;77.98;99303.78;5484650;32;34187;-80
2023/10/31 13:57:21;;;;;;;;;;;;;;;16.07;76.55;99287.06;5490238;32;34507;-81
2023/10/31 14:00:25;;;;;;;;;;;;;;;15.31;78.44;99264.69;5479219;32;34277;-79
2023/10/31 14:03:27;;;;;;;;;;;;;;;15.04;78.41;99227.94;5487561;32;34023;-80
2023/10/31 14:06:30;;;;;;;;;;;;;;;14.89;78.13;99211.41;5484750;32;34460;-78
2023/10/31 14:09:33;;;;;;;;;;;;;;;15.25;75.54;99182.25;5482536;32;34102;-78
2023/10/31 14:12:35;;;;;;;;;;;;;;;14.92;77.15;99128.31;5479869;32;34589;-80
2023/10/31 14:15:37;;;;;;;;;;;;;;;14.70;80.41;99097.41;5488933;32;35316;-78
2023/10/31 14:18:40;;;;;;;;;;;;;;;14.66;79.65;99005.19;5488467;32;34347;-78
2023/10/31 14:21:45;;;;;;;;;;;;;;;15.23;76.92;98994.47;5483433;32;34216;-75
2023/10/31 14:24:47;;;;;;;;;;;;;;;16.07;72.20;99059.12;5483384;32;34180;-81
2023/10/31 14:27:51;;;;;;;;;;;;;;;15.23;73.67;99059.78;5481743;32;34335;-82
2023/10/31 14:30:53;;;;;;;;;;;;;;;15.02;76.17;99049.09;5479085;32;34955;-77
2023/10/31 14:33:57;;;;;;;;;;;;;;;14.61;78.27;99071.63;5487310;32;34049;-81
2023/10/31 14:36:59;;;;;;;;;;;;;;;15.49;74.52;99111.50;5483836;32;34375;-78
2023/10/31 14:40:03;;;;;;;;;;;;;;;14.56;78.67;99095.81;5488680;32;32851;-76
2023/10/31 14:43:08;;;;;;;;;;;;;;;14.67;79.17;99088.84;5482480;32;34621;-77
2023/10/31 14:46:11;;;;;;;;;;;;;;;15.23;75.26;99102.13;5482322;32;35264;-80
2023/10/31 14:49:13;;;;;;;;;;;;;;;14.24;78.74;99097.34;5485913;32;35417;-77
2023/10/31 14:52:19;;;;;;;;;;;;;;;14.33;76.92;99086.09;5483578;32;34351;-82
2023/10/31 14:55:21;;;;;;;;;;;;;;;14.61;76.01;99083.06;5484247;32;35093;-77
2023/10/31 14:58:23;;;;;;;;;;;;;;;14.57;77.55;99100.13;5480478;32;34271;-77
2023/10/31 15:01:26;;;;;;;;;;;;;;;13.91;77.72;99120.03;5475764;32;33189;-78
2023/10/31 15:04:28;;;;;;;;;;;;;;;14.61;77.51;99170.31;5478511;32;34105;-77
2023/10/31 15:07:31;;;;;;;;;;;;;;;14.88;73.90;99193.03;5483233;32;35062;-78
2023/10/31 15:10:33;;;;;;;;;;;;;;;14.82;74.27;99201.44;5486501;32;35172;-77
2023/10/31 15:13:35;;;;;;;;;;;;;;;15.05;73.42;99224.31;5483389;32;34217;-77
2023/10/31 15:16:38;;;;;;;;;;;;;;;14.64;75.17;99227.44;5479659;32;34598;-79
2023/10/31 15:19:40;;;;;;;;;;;;;;;15.09;73.52;99246.97;5478571;32;34182;-78
2023/10/31 15:22:42;;;;;;;;;;;;;;;14.94;71.84;99271.94;5483928;32;36300;-78
2023/10/31 15:25:44;;;;;;;;;;;;;;;14.31;76.37;99273.84;5478540;32;33395;-78
2023/10/31 15:28:46;;;;;;;;;;;;;;;13.67;79.54;99265.22;5484926;32;34496;-79
2023/10/31 15:31:53;;;;;;;;;;;;;;;14.08;78.00;99282.56;5483453;32;33987;-79
2023/10/31 15:34:56;;;;;;;;;;;;;;;14.42;77.06;99296.00;5483705;32;33873;-79
2023/10/31 15:37:58;;;;;;;;;;;;;;;14.16;77.13;99326.94;5476399;32;35104;-83
2023/10/31 15:41:00;;;;;;;;;;;;;;;14.44;76.06;99331.97;5486129;32;34163;-79
2023/10/31 15:44:15;;;;;;;;;;;;;;;14.77;74.90;99334.00;5484786;32;33759;-77
2023/10/31 15:47:18;;;;;;;;;;;;;;;15.34;71.35;99316.56;5485894;32;34219;-78
2023/10/31 15:50:20;;;;;;;;;;;;;;;14.92;72.39;99332.03;5487333;32;34009;-78
2023/10/31 15:53:23;;;;;;;;;;;;;;;14.57;74.58;99340.75;5485720;32;36022;-80
2023/10/31 15:56:26;;;;;;;;;;;;;;;14.80;73.26;99349.62;5484785;32;34493;-79
2023/10/31 15:59:28;;;;;;;;;;;;;;;15.30;72.02;99341.56;5487992;32;34112;-79
2023/10/31 16:02:30;;;;;;;;;;;;;;;14.84;72.47;99347.63;5482995;32;34771;-79
2023/10/31 16:05:33;;;;;;;;;;;;;;;14.39;73.26;99331.44;5485114;32;35393;-79
2023/10/31 16:08:39;;;;;;;;;;;;;;;14.55;72.74;99345.28;5481426;32;34125;-78
2023/10/31 16:11:42;;;;;;;;;;;;;;;14.44;73.76;99334.62;5483506;32;34053;-77